sensor_id;sensor_type;location;lat;lon;timestamp;P1;durP1;ratioP1;P2;durP2;ratioP2
69434;SDS011;56625;54.322;18.582;2022-07-29T00:01:18;8.90;;;3.20;;
69434;SDS011;56625;54.322;18.582;2022-07-29T00:03:46;10.50;;;3.70;;
69434;SDS011;56625;54.322;18.582;2022-07-29T00:06:16;8.80;;;3.20;;
69434;SDS011;56625;54.322;18.582;2022-07-29T00:08:44;12.40;;;3.60;;
69434;SDS011;56625;54.322;18.582;2022-07-29T00:11:12;9.50;;;3.80;;
69434;SDS011;56625;54.322;18.582;2022-07-29T00:13:40;9.40;;;3.10;;
69434;SDS011;56625;54.322;18.582;2022-07-29T00:16:08;11.20;;;3.60;;
69434;SDS011;56625;54.322;18.582;2022-07-29T00:18:36;9.20;;;3.10;;
69434;SDS011;56625;54.322;18.582;2022-07-29T00:21:03;10.90;;;3.70;;
69434;SDS011;56625;54.322;18.582;2022-07-29T00:23:31;13.20;;;3.60;;
69434;SDS011;56625;54.322;18.582;2022-07-29T00:26:03;12.10;;;3.80;;
69434;SDS011;56625;54.322;18.582;2022-07-29T00:28:31;10.60;;;3.50;;
69434;SDS011;56625;54.322;18.582;2022-07-29T00:30:59;10.30;;;3.50;;
69434;SDS011;56625;54.322;18.582;2022-07-29T00:33:28;10.80;;;2.90;;
69434;SDS011;56625;54.322;18.582;2022-07-29T00:35:56;9.70;;;2.90;;
69434;SDS011;56625;54.322;18.582;2022-07-29T00:38:24;9.70;;;3.10;;
69434;SDS011;56625;54.322;18.582;2022-07-29T00:40:52;9.00;;;2.40;;
69434;SDS011;56625;54.322;18.582;2022-07-29T00:43:20;7.60;;;2.40;;
69434;SDS011;56625;54.322;18.582;2022-07-29T00:45:48;7.40;;;2.40;;
69434;SDS011;56625;54.322;18.582;2022-07-29T00:48:16;7.90;;;2.10;;
69434;SDS011;56625;54.322;18.582;2022-07-29T00:50:44;7.40;;;2.30;;
69434;SDS011;56625;54.322;18.582;2022-07-29T00:53:12;7.40;;;2.60;;
69434;SDS011;56625;54.322;18.582;2022-07-29T00:55:48;8.40;;;2.60;;
69434;SDS011;56625;54.322;18.582;2022-07-29T00:58:19;7.20;;;2.50;;
69434;SDS011;56625;54.322;18.582;2022-07-29T01:00:47;6.90;;;2.30;;
69434;SDS011;56625;54.322;18.582;2022-07-29T01:03:18;7.80;;;2.40;;
69434;SDS011;56625;54.322;18.582;2022-07-29T01:05:50;6.80;;;2.40;;
69434;SDS011;56625;54.322;18.582;2022-07-29T01:08:20;8.00;;;2.20;;
69434;SDS011;56625;54.322;18.582;2022-07-29T01:10:49;9.60;;;2.50;;
69434;SDS011;56625;54.322;18.582;2022-07-29T01:13:17;7.40;;;2.10;;
69434;SDS011;56625;54.322;18.582;2022-07-29T01:15:58;7.60;;;2.10;;
69434;SDS011;56625;54.322;18.582;2022-07-29T01:18:34;7.80;;;2.70;;
69434;SDS011;56625;54.322;18.582;2022-07-29T01:25:17;7.50;;;2.60;;
69434;SDS011;56625;54.322;18.582;2022-07-29T01:30:32;5.60;;;2.00;;
69434;SDS011;56625;54.322;18.582;2022-07-29T01:33:05;8.90;;;2.50;;
69434;SDS011;56625;54.322;18.582;2022-07-29T01:35:38;6.50;;;1.90;;
69434;SDS011;56625;54.322;18.582;2022-07-29T01:38:08;7.40;;;2.00;;
69434;SDS011;56625;54.322;18.582;2022-07-29T01:40:47;7.40;;;2.10;;
69434;SDS011;56625;54.322;18.582;2022-07-29T01:43:21;7.00;;;2.20;;
69434;SDS011;56625;54.322;18.582;2022-07-29T01:46:04;6.90;;;2.00;;
69434;SDS011;56625;54.322;18.582;2022-07-29T01:48:49;7.70;;;2.50;;
69434;SDS011;56625;54.322;18.582;2022-07-29T01:51:31;7.20;;;1.90;;
69434;SDS011;56625;54.322;18.582;2022-07-29T01:54:32;8.00;;;2.10;;
69434;SDS011;56625;54.322;18.582;2022-07-29T01:57:06;9.60;;;2.90;;
69434;SDS011;56625;54.322;18.582;2022-07-29T01:59:37;9.40;;;2.30;;
69434;SDS011;56625;54.322;18.582;2022-07-29T02:02:08;6.70;;;2.00;;
69434;SDS011;56625;54.322;18.582;2022-07-29T02:04:39;5.90;;;1.80;;
69434;SDS011;56625;54.322;18.582;2022-07-29T02:07:12;6.30;;;1.80;;
69434;SDS011;56625;54.322;18.582;2022-07-29T02:09:43;9.30;;;2.10;;
69434;SDS011;56625;54.322;18.582;2022-07-29T02:12:16;7.00;;;2.00;;
69434;SDS011;56625;54.322;18.582;2022-07-29T02:14:50;7.00;;;2.10;;
69434;SDS011;56625;54.322;18.582;2022-07-29T02:17:23;6.60;;;2.20;;
69434;SDS011;56625;54.322;18.582;2022-07-29T02:19:58;6.40;;;2.00;;
69434;SDS011;56625;54.322;18.582;2022-07-29T02:22:30;6.00;;;1.90;;
69434;SDS011;56625;54.322;18.582;2022-07-29T02:25:01;6.70;;;1.70;;
69434;SDS011;56625;54.322;18.582;2022-07-29T02:27:32;6.60;;;2.20;;
69434;SDS011;56625;54.322;18.582;2022-07-29T02:30:03;7.50;;;2.10;;
69434;SDS011;56625;54.322;18.582;2022-07-29T02:32:35;6.70;;;2.30;;
69434;SDS011;56625;54.322;18.582;2022-07-29T02:35:08;6.70;;;2.30;;
69434;SDS011;56625;54.322;18.582;2022-07-29T02:37:37;9.30;;;2.20;;
69434;SDS011;56625;54.322;18.582;2022-07-29T02:40:09;6.70;;;2.00;;
69434;SDS011;56625;54.322;18.582;2022-07-29T02:42:41;6.50;;;2.00;;
69434;SDS011;56625;54.322;18.582;2022-07-29T02:45:11;8.30;;;2.10;;
69434;SDS011;56625;54.322;18.582;2022-07-29T02:47:43;6.70;;;2.10;;
69434;SDS011;56625;54.322;18.582;2022-07-29T02:50:29;8.20;;;2.10;;
69434;SDS011;56625;54.322;18.582;2022-07-29T02:53:13;8.00;;;2.10;;
69434;SDS011;56625;54.322;18.582;2022-07-29T02:55:48;7.70;;;2.20;;
69434;SDS011;56625;54.322;18.582;2022-07-29T02:58:32;7.70;;;2.10;;
69434;SDS011;56625;54.322;18.582;2022-07-29T03:01:03;7.50;;;2.40;;
69434;SDS011;56625;54.322;18.582;2022-07-29T03:03:44;7.20;;;2.10;;
69434;SDS011;56625;54.322;18.582;2022-07-29T03:06:15;10.70;;;2.30;;
69434;SDS011;56625;54.322;18.582;2022-07-29T03:09:07;5.80;;;2.10;;
69434;SDS011;56625;54.322;18.582;2022-07-29T03:11:41;7.40;;;2.70;;
69434;SDS011;56625;54.322;18.582;2022-07-29T03:14:18;8.00;;;2.30;;
69434;SDS011;56625;54.322;18.582;2022-07-29T03:16:48;7.30;;;2.60;;
69434;SDS011;56625;54.322;18.582;2022-07-29T03:19:18;6.60;;;2.30;;
69434;SDS011;56625;54.322;18.582;2022-07-29T03:21:47;7.70;;;2.40;;
69434;SDS011;56625;54.322;18.582;2022-07-29T03:24:28;7.70;;;2.50;;
69434;SDS011;56625;54.322;18.582;2022-07-29T03:27:03;7.10;;;2.50;;
69434;SDS011;56625;54.322;18.582;2022-07-29T03:29:32;7.10;;;2.30;;
69434;SDS011;56625;54.322;18.582;2022-07-29T03:32:04;15.20;;;2.70;;
69434;SDS011;56625;54.322;18.582;2022-07-29T03:34:36;7.50;;;2.10;;
69434;SDS011;56625;54.322;18.582;2022-07-29T03:37:06;9.30;;;2.50;;
69434;SDS011;56625;54.322;18.582;2022-07-29T03:39:40;7.70;;;2.40;;
69434;SDS011;56625;54.322;18.582;2022-07-29T03:42:11;8.50;;;2.30;;
69434;SDS011;56625;54.322;18.582;2022-07-29T03:44:44;9.00;;;2.40;;
69434;SDS011;56625;54.322;18.582;2022-07-29T03:47:17;7.20;;;2.60;;
69434;SDS011;56625;54.322;18.582;2022-07-29T03:50:11;8.40;;;2.40;;
69434;SDS011;56625;54.322;18.582;2022-07-29T03:52:41;5.90;;;2.20;;
69434;SDS011;56625;54.322;18.582;2022-07-29T03:55:12;8.50;;;2.30;;
69434;SDS011;56625;54.322;18.582;2022-07-29T03:57:41;8.40;;;2.50;;
69434;SDS011;56625;54.322;18.582;2022-07-29T04:00:12;7.20;;;2.20;;
69434;SDS011;56625;54.322;18.582;2022-07-29T04:02:40;8.20;;;2.40;;
69434;SDS011;56625;54.322;18.582;2022-07-29T04:05:12;14.60;;;2.50;;
69434;SDS011;56625;54.322;18.582;2022-07-29T04:07:44;9.50;;;2.10;;
69434;SDS011;56625;54.322;18.582;2022-07-29T04:10:13;11.50;;;2.80;;
69434;SDS011;56625;54.322;18.582;2022-07-29T04:12:43;7.60;;;2.80;;
69434;SDS011;56625;54.322;18.582;2022-07-29T04:15:11;5.60;;;2.30;;
69434;SDS011;56625;54.322;18.582;2022-07-29T04:17:39;8.30;;;2.90;;
69434;SDS011;56625;54.322;18.582;2022-07-29T04:20:07;9.40;;;2.80;;
69434;SDS011;56625;54.322;18.582;2022-07-29T04:22:35;8.80;;;2.70;;
69434;SDS011;56625;54.322;18.582;2022-07-29T04:25:03;17.00;;;2.80;;
69434;SDS011;56625;54.322;18.582;2022-07-29T04:27:31;14.20;;;2.50;;
69434;SDS011;56625;54.322;18.582;2022-07-29T04:29:59;8.60;;;2.70;;
69434;SDS011;56625;54.322;18.582;2022-07-29T04:32:27;9.90;;;2.50;;
69434;SDS011;56625;54.322;18.582;2022-07-29T04:34:55;19.60;;;3.40;;
69434;SDS011;56625;54.322;18.582;2022-07-29T04:37:22;11.70;;;3.10;;
69434;SDS011;56625;54.322;18.582;2022-07-29T04:39:51;12.70;;;3.10;;
69434;SDS011;56625;54.322;18.582;2022-07-29T04:42:18;14.70;;;3.00;;
69434;SDS011;56625;54.322;18.582;2022-07-29T04:44:54;8.70;;;2.30;;
69434;SDS011;56625;54.322;18.582;2022-07-29T04:47:22;7.20;;;2.30;;
69434;SDS011;56625;54.322;18.582;2022-07-29T04:49:50;8.10;;;1.90;;
69434;SDS011;56625;54.322;18.582;2022-07-29T04:52:17;12.30;;;1.90;;
69434;SDS011;56625;54.322;18.582;2022-07-29T04:54:45;7.40;;;2.00;;
69434;SDS011;56625;54.322;18.582;2022-07-29T04:57:13;6.30;;;1.50;;
69434;SDS011;56625;54.322;18.582;2022-07-29T04:59:41;6.60;;;1.50;;
69434;SDS011;56625;54.322;18.582;2022-07-29T05:02:09;5.00;;;1.20;;
69434;SDS011;56625;54.322;18.582;2022-07-29T05:04:37;5.60;;;1.10;;
69434;SDS011;56625;54.322;18.582;2022-07-29T05:07:05;4.10;;;1.10;;
69434;SDS011;56625;54.322;18.582;2022-07-29T05:09:32;5.60;;;1.10;;
69434;SDS011;56625;54.322;18.582;2022-07-29T05:12:00;4.30;;;0.90;;
69434;SDS011;56625;54.322;18.582;2022-07-29T05:14:29;6.90;;;0.90;;
69434;SDS011;56625;54.322;18.582;2022-07-29T05:16:57;5.00;;;1.10;;
69434;SDS011;56625;54.322;18.582;2022-07-29T05:19:25;3.60;;;1.00;;
69434;SDS011;56625;54.322;18.582;2022-07-29T05:21:53;4.00;;;0.90;;
69434;SDS011;56625;54.322;18.582;2022-07-29T05:24:20;6.60;;;1.20;;
69434;SDS011;56625;54.322;18.582;2022-07-29T05:26:48;4.90;;;1.00;;
69434;SDS011;56625;54.322;18.582;2022-07-29T05:29:16;4.80;;;0.90;;
69434;SDS011;56625;54.322;18.582;2022-07-29T05:32:04;4.40;;;0.90;;
69434;SDS011;56625;54.322;18.582;2022-07-29T05:34:33;6.40;;;1.10;;
69434;SDS011;56625;54.322;18.582;2022-07-29T05:37:01;4.50;;;0.80;;
69434;SDS011;56625;54.322;18.582;2022-07-29T05:39:29;4.60;;;0.80;;
69434;SDS011;56625;54.322;18.582;2022-07-29T05:42:15;6.00;;;0.90;;
69434;SDS011;56625;54.322;18.582;2022-07-29T05:44:43;3.90;;;0.60;;
69434;SDS011;56625;54.322;18.582;2022-07-29T05:47:11;3.40;;;0.60;;
69434;SDS011;56625;54.322;18.582;2022-07-29T05:49:39;4.40;;;0.70;;
69434;SDS011;56625;54.322;18.582;2022-07-29T05:52:07;4.30;;;0.80;;
69434;SDS011;56625;54.322;18.582;2022-07-29T05:54:35;4.00;;;0.80;;
69434;SDS011;56625;54.322;18.582;2022-07-29T05:57:03;4.30;;;0.90;;
69434;SDS011;56625;54.322;18.582;2022-07-29T05:59:35;4.00;;;0.70;;
69434;SDS011;56625;54.322;18.582;2022-07-29T06:02:04;3.80;;;0.70;;
69434;SDS011;56625;54.322;18.582;2022-07-29T06:04:33;3.90;;;0.60;;
69434;SDS011;56625;54.322;18.582;2022-07-29T06:07:04;4.40;;;0.60;;
69434;SDS011;56625;54.322;18.582;2022-07-29T06:09:34;5.70;;;1.50;;
69434;SDS011;56625;54.322;18.582;2022-07-29T06:12:03;5.20;;;0.60;;
69434;SDS011;56625;54.322;18.582;2022-07-29T06:14:31;5.00;;;1.10;;
69434;SDS011;56625;54.322;18.582;2022-07-29T06:17:01;4.80;;;0.80;;
69434;SDS011;56625;54.322;18.582;2022-07-29T06:19:29;3.50;;;0.70;;
69434;SDS011;56625;54.322;18.582;2022-07-29T06:21:57;6.20;;;0.90;;
69434;SDS011;56625;54.322;18.582;2022-07-29T06:24:25;3.90;;;0.60;;
69434;SDS011;56625;54.322;18.582;2022-07-29T06:26:56;3.10;;;0.50;;
69434;SDS011;56625;54.322;18.582;2022-07-29T06:29:24;2.50;;;0.30;;
69434;SDS011;56625;54.322;18.582;2022-07-29T06:31:52;2.10;;;0.30;;
69434;SDS011;56625;54.322;18.582;2022-07-29T06:34:19;4.40;;;0.50;;
69434;SDS011;56625;54.322;18.582;2022-07-29T06:36:48;2.80;;;0.40;;
69434;SDS011;56625;54.322;18.582;2022-07-29T06:39:19;4.40;;;0.50;;
69434;SDS011;56625;54.322;18.582;2022-07-29T06:41:48;2.50;;;0.30;;
69434;SDS011;56625;54.322;18.582;2022-07-29T06:44:17;5.60;;;0.40;;
69434;SDS011;56625;54.322;18.582;2022-07-29T06:46:46;3.70;;;0.50;;
69434;SDS011;56625;54.322;18.582;2022-07-29T06:49:17;3.90;;;0.30;;
69434;SDS011;56625;54.322;18.582;2022-07-29T06:51:45;2.50;;;0.30;;
69434;SDS011;56625;54.322;18.582;2022-07-29T06:54:14;3.90;;;0.60;;
69434;SDS011;56625;54.322;18.582;2022-07-29T06:56:42;4.00;;;0.50;;
69434;SDS011;56625;54.322;18.582;2022-07-29T06:59:11;3.50;;;0.50;;
69434;SDS011;56625;54.322;18.582;2022-07-29T07:01:42;2.60;;;0.40;;
69434;SDS011;56625;54.322;18.582;2022-07-29T07:04:11;2.60;;;0.40;;
69434;SDS011;56625;54.322;18.582;2022-07-29T07:06:39;3.10;;;0.50;;
69434;SDS011;56625;54.322;18.582;2022-07-29T07:09:07;2.10;;;0.30;;
69434;SDS011;56625;54.322;18.582;2022-07-29T07:11:36;1.80;;;0.30;;
69434;SDS011;56625;54.322;18.582;2022-07-29T07:14:04;2.20;;;0.40;;
69434;SDS011;56625;54.322;18.582;2022-07-29T07:16:31;2.40;;;0.30;;
69434;SDS011;56625;54.322;18.582;2022-07-29T07:19:00;2.40;;;0.30;;
69434;SDS011;56625;54.322;18.582;2022-07-29T07:21:28;3.90;;;0.40;;
69434;SDS011;56625;54.322;18.582;2022-07-29T07:23:58;2.80;;;0.50;;
69434;SDS011;56625;54.322;18.582;2022-07-29T07:26:27;15.10;;;1.20;;
69434;SDS011;56625;54.322;18.582;2022-07-29T07:28:55;8.80;;;0.90;;
69434;SDS011;56625;54.322;18.582;2022-07-29T07:31:23;4.90;;;0.80;;
69434;SDS011;56625;54.322;18.582;2022-07-29T07:33:51;2.90;;;0.30;;
69434;SDS011;56625;54.322;18.582;2022-07-29T07:36:21;2.00;;;0.30;;
69434;SDS011;56625;54.322;18.582;2022-07-29T07:38:50;2.30;;;0.30;;
69434;SDS011;56625;54.322;18.582;2022-07-29T07:41:18;1.80;;;0.30;;
69434;SDS011;56625;54.322;18.582;2022-07-29T07:43:46;3.60;;;0.30;;
69434;SDS011;56625;54.322;18.582;2022-07-29T07:46:14;3.90;;;0.50;;
69434;SDS011;56625;54.322;18.582;2022-07-29T07:48:43;2.30;;;0.30;;
69434;SDS011;56625;54.322;18.582;2022-07-29T07:51:11;4.80;;;0.40;;
69434;SDS011;56625;54.322;18.582;2022-07-29T07:53:39;4.00;;;0.40;;
69434;SDS011;56625;54.322;18.582;2022-07-29T07:56:07;4.20;;;0.40;;
69434;SDS011;56625;54.322;18.582;2022-07-29T07:58:38;3.90;;;0.40;;
69434;SDS011;56625;54.322;18.582;2022-07-29T08:01:07;2.30;;;0.20;;
69434;SDS011;56625;54.322;18.582;2022-07-29T08:03:35;2.20;;;0.40;;
69434;SDS011;56625;54.322;18.582;2022-07-29T08:06:04;2.50;;;0.30;;
69434;SDS011;56625;54.322;18.582;2022-07-29T08:08:32;2.50;;;0.30;;
69434;SDS011;56625;54.322;18.582;2022-07-29T08:11:01;3.50;;;0.30;;
69434;SDS011;56625;54.322;18.582;2022-07-29T08:13:36;1.10;;;0.30;;
69434;SDS011;56625;54.322;18.582;2022-07-29T08:16:06;3.40;;;0.30;;
69434;SDS011;56625;54.322;18.582;2022-07-29T08:18:45;1.90;;;0.40;;
69434;SDS011;56625;54.322;18.582;2022-07-29T08:21:14;2.30;;;0.40;;
69434;SDS011;56625;54.322;18.582;2022-07-29T08:23:44;2.90;;;0.40;;
69434;SDS011;56625;54.322;18.582;2022-07-29T08:26:21;2.80;;;0.30;;
69434;SDS011;56625;54.322;18.582;2022-07-29T08:28:49;1.90;;;0.30;;
69434;SDS011;56625;54.322;18.582;2022-07-29T08:31:18;1.40;;;0.30;;
69434;SDS011;56625;54.322;18.582;2022-07-29T08:33:46;2.40;;;0.30;;
69434;SDS011;56625;54.322;18.582;2022-07-29T08:36:14;1.50;;;0.40;;
69434;SDS011;56625;54.322;18.582;2022-07-29T08:38:42;3.30;;;0.40;;
69434;SDS011;56625;54.322;18.582;2022-07-29T08:41:09;2.80;;;0.30;;
69434;SDS011;56625;54.322;18.582;2022-07-29T08:43:39;1.10;;;0.30;;
69434;SDS011;56625;54.322;18.582;2022-07-29T08:46:08;2.50;;;0.40;;
69434;SDS011;56625;54.322;18.582;2022-07-29T08:48:36;1.10;;;0.30;;
69434;SDS011;56625;54.322;18.582;2022-07-29T08:51:07;2.90;;;0.40;;
69434;SDS011;56625;54.322;18.582;2022-07-29T08:53:36;5.80;;;0.50;;
69434;SDS011;56625;54.322;18.582;2022-07-29T08:56:05;2.30;;;0.30;;
69434;SDS011;56625;54.322;18.582;2022-07-29T08:58:34;4.50;;;0.40;;
69434;SDS011;56625;54.322;18.582;2022-07-29T09:01:06;2.80;;;0.30;;
69434;SDS011;56625;54.322;18.582;2022-07-29T09:03:40;1.50;;;0.40;;
69434;SDS011;56625;54.322;18.582;2022-07-29T09:06:09;1.50;;;0.30;;
69434;SDS011;56625;54.322;18.582;2022-07-29T09:08:41;2.40;;;0.50;;
69434;SDS011;56625;54.322;18.582;2022-07-29T09:11:11;0.80;;;0.30;;
69434;SDS011;56625;54.322;18.582;2022-07-29T09:13:40;3.90;;;0.30;;
69434;SDS011;56625;54.322;18.582;2022-07-29T09:16:08;2.80;;;0.30;;
69434;SDS011;56625;54.322;18.582;2022-07-29T09:18:39;4.20;;;0.50;;
69434;SDS011;56625;54.322;18.582;2022-07-29T09:21:14;3.00;;;0.40;;
69434;SDS011;56625;54.322;18.582;2022-07-29T09:24:05;1.80;;;0.30;;
69434;SDS011;56625;54.322;18.582;2022-07-29T09:26:43;3.10;;;0.50;;
69434;SDS011;56625;54.322;18.582;2022-07-29T09:29:22;1.80;;;0.30;;
69434;SDS011;56625;54.322;18.582;2022-07-29T09:31:53;1.90;;;0.30;;
69434;SDS011;56625;54.322;18.582;2022-07-29T09:34:27;9.30;;;0.70;;
69434;SDS011;56625;54.322;18.582;2022-07-29T09:36:57;6.50;;;0.60;;
69434;SDS011;56625;54.322;18.582;2022-07-29T09:39:38;3.70;;;0.50;;
69434;SDS011;56625;54.322;18.582;2022-07-29T09:42:27;3.90;;;0.50;;
69434;SDS011;56625;54.322;18.582;2022-07-29T09:44:57;4.50;;;0.40;;
69434;SDS011;56625;54.322;18.582;2022-07-29T09:47:40;5.30;;;0.70;;
69434;SDS011;56625;54.322;18.582;2022-07-29T09:50:12;6.30;;;0.50;;
69434;SDS011;56625;54.322;18.582;2022-07-29T09:52:46;3.70;;;0.30;;
69434;SDS011;56625;54.322;18.582;2022-07-29T09:55:19;6.50;;;0.40;;
69434;SDS011;56625;54.322;18.582;2022-07-29T09:57:47;6.60;;;0.50;;
69434;SDS011;56625;54.322;18.582;2022-07-29T10:00:18;5.90;;;0.50;;
69434;SDS011;56625;54.322;18.582;2022-07-29T10:02:48;5.50;;;0.60;;
69434;SDS011;56625;54.322;18.582;2022-07-29T10:05:25;3.50;;;0.50;;
69434;SDS011;56625;54.322;18.582;2022-07-29T10:08:03;10.10;;;1.10;;
69434;SDS011;56625;54.322;18.582;2022-07-29T10:10:34;2.80;;;0.30;;
69434;SDS011;56625;54.322;18.582;2022-07-29T10:13:10;4.20;;;0.60;;
69434;SDS011;56625;54.322;18.582;2022-07-29T10:15:44;2.20;;;0.30;;
69434;SDS011;56625;54.322;18.582;2022-07-29T10:18:14;2.60;;;0.40;;
69434;SDS011;56625;54.322;18.582;2022-07-29T10:20:45;2.50;;;0.20;;
69434;SDS011;56625;54.322;18.582;2022-07-29T10:23:13;4.90;;;0.40;;
69434;SDS011;56625;54.322;18.582;2022-07-29T10:25:41;7.00;;;0.60;;
69434;SDS011;56625;54.322;18.582;2022-07-29T10:28:13;6.40;;;0.60;;
69434;SDS011;56625;54.322;18.582;2022-07-29T10:30:44;4.70;;;0.40;;
69434;SDS011;56625;54.322;18.582;2022-07-29T10:33:41;3.60;;;0.40;;
69434;SDS011;56625;54.322;18.582;2022-07-29T10:36:57;1.20;;;0.30;;
69434;SDS011;56625;54.322;18.582;2022-07-29T10:40:00;6.10;;;0.50;;
69434;SDS011;56625;54.322;18.582;2022-07-29T10:43:00;2.90;;;0.40;;
69434;SDS011;56625;54.322;18.582;2022-07-29T10:45:58;4.00;;;0.50;;
69434;SDS011;56625;54.322;18.582;2022-07-29T10:48:28;2.60;;;0.30;;
69434;SDS011;56625;54.322;18.582;2022-07-29T10:53:51;3.90;;;0.30;;
69434;SDS011;56625;54.322;18.582;2022-07-29T11:05:15;8.70;;;0.40;;
69434;SDS011;56625;54.322;18.582;2022-07-29T11:10:48;2.20;;;0.20;;
69434;SDS011;56625;54.322;18.582;2022-07-29T11:16:09;2.40;;;0.30;;
69434;SDS011;56625;54.322;18.582;2022-07-29T11:21:43;3.30;;;0.20;;
69434;SDS011;56625;54.322;18.582;2022-07-29T11:24:32;9.80;;;0.60;;
69434;SDS011;56625;54.322;18.582;2022-07-29T11:27:12;3.50;;;0.30;;
69434;SDS011;56625;54.322;18.582;2022-07-29T11:29:50;3.00;;;0.30;;
69434;SDS011;56625;54.322;18.582;2022-07-29T11:32:22;12.60;;;0.60;;
69434;SDS011;56625;54.322;18.582;2022-07-29T11:35:20;2.30;;;0.40;;
69434;SDS011;56625;54.322;18.582;2022-07-29T11:38:26;1.90;;;0.30;;
69434;SDS011;56625;54.322;18.582;2022-07-29T11:43:47;1.40;;;0.20;;
69434;SDS011;56625;54.322;18.582;2022-07-29T11:46:47;2.50;;;0.30;;
69434;SDS011;56625;54.322;18.582;2022-07-29T11:49:26;2.80;;;0.20;;
69434;SDS011;56625;54.322;18.582;2022-07-29T11:52:00;3.70;;;0.30;;
69434;SDS011;56625;54.322;18.582;2022-07-29T11:54:34;3.10;;;0.30;;
69434;SDS011;56625;54.322;18.582;2022-07-29T11:57:22;3.20;;;0.40;;
69434;SDS011;56625;54.322;18.582;2022-07-29T12:00:06;4.60;;;0.30;;
69434;SDS011;56625;54.322;18.582;2022-07-29T12:02:43;3.20;;;0.40;;
69434;SDS011;56625;54.322;18.582;2022-07-29T12:05:15;2.20;;;0.20;;
69434;SDS011;56625;54.322;18.582;2022-07-29T12:08:12;2.20;;;0.30;;
69434;SDS011;56625;54.322;18.582;2022-07-29T12:10:42;1.80;;;0.30;;
69434;SDS011;56625;54.322;18.582;2022-07-29T12:13:11;4.30;;;0.30;;
69434;SDS011;56625;54.322;18.582;2022-07-29T12:15:41;2.20;;;0.20;;
69434;SDS011;56625;54.322;18.582;2022-07-29T12:18:16;1.20;;;0.30;;
69434;SDS011;56625;54.322;18.582;2022-07-29T12:20:58;1.20;;;0.20;;
69434;SDS011;56625;54.322;18.582;2022-07-29T12:23:32;1.40;;;0.20;;
69434;SDS011;56625;54.322;18.582;2022-07-29T12:26:07;1.50;;;0.30;;
69434;SDS011;56625;54.322;18.582;2022-07-29T12:28:48;5.20;;;0.30;;
69434;SDS011;56625;54.322;18.582;2022-07-29T12:31:16;3.00;;;0.30;;
69434;SDS011;56625;54.322;18.582;2022-07-29T12:34:04;2.30;;;0.30;;
69434;SDS011;56625;54.322;18.582;2022-07-29T12:36:32;4.20;;;0.40;;
69434;SDS011;56625;54.322;18.582;2022-07-29T12:39:00;3.70;;;0.30;;
69434;SDS011;56625;54.322;18.582;2022-07-29T12:41:30;4.90;;;0.50;;
69434;SDS011;56625;54.322;18.582;2022-07-29T12:43:59;2.30;;;0.40;;
69434;SDS011;56625;54.322;18.582;2022-07-29T12:46:27;3.10;;;0.30;;
69434;SDS011;56625;54.322;18.582;2022-07-29T12:48:55;6.50;;;0.40;;
69434;SDS011;56625;54.322;18.582;2022-07-29T12:51:36;4.00;;;0.40;;
69434;SDS011;56625;54.322;18.582;2022-07-29T12:54:11;4.70;;;0.40;;
69434;SDS011;56625;54.322;18.582;2022-07-29T12:56:44;2.70;;;0.30;;
69434;SDS011;56625;54.322;18.582;2022-07-29T12:59:17;1.80;;;0.20;;
69434;SDS011;56625;54.322;18.582;2022-07-29T13:01:49;2.60;;;0.40;;
69434;SDS011;56625;54.322;18.582;2022-07-29T13:04:32;3.20;;;0.30;;
69434;SDS011;56625;54.322;18.582;2022-07-29T13:07:05;2.00;;;0.30;;
69434;SDS011;56625;54.322;18.582;2022-07-29T13:10:17;1.80;;;0.30;;
69434;SDS011;56625;54.322;18.582;2022-07-29T13:13:09;1.40;;;0.20;;
69434;SDS011;56625;54.322;18.582;2022-07-29T13:15:45;1.80;;;0.50;;
69434;SDS011;56625;54.322;18.582;2022-07-29T13:18:39;1.80;;;0.40;;
69434;SDS011;56625;54.322;18.582;2022-07-29T13:21:13;2.00;;;0.20;;
69434;SDS011;56625;54.322;18.582;2022-07-29T13:23:45;2.50;;;0.40;;
69434;SDS011;56625;54.322;18.582;2022-07-29T13:26:40;6.10;;;0.30;;
69434;SDS011;56625;54.322;18.582;2022-07-29T13:29:10;3.30;;;0.30;;
69434;SDS011;56625;54.322;18.582;2022-07-29T13:31:45;2.90;;;0.30;;
69434;SDS011;56625;54.322;18.582;2022-07-29T13:34:29;1.70;;;0.30;;
69434;SDS011;56625;54.322;18.582;2022-07-29T13:37:06;1.90;;;0.30;;
69434;SDS011;56625;54.322;18.582;2022-07-29T13:40:10;2.60;;;0.20;;
69434;SDS011;56625;54.322;18.582;2022-07-29T13:42:50;2.10;;;0.20;;
69434;SDS011;56625;54.322;18.582;2022-07-29T13:45:18;3.20;;;0.30;;
69434;SDS011;56625;54.322;18.582;2022-07-29T13:47:46;1.90;;;0.40;;
69434;SDS011;56625;54.322;18.582;2022-07-29T13:50:15;6.80;;;0.60;;
69434;SDS011;56625;54.322;18.582;2022-07-29T13:52:43;3.10;;;0.60;;
69434;SDS011;56625;54.322;18.582;2022-07-29T13:55:11;3.50;;;0.30;;
69434;SDS011;56625;54.322;18.582;2022-07-29T13:57:39;2.00;;;0.20;;
69434;SDS011;56625;54.322;18.582;2022-07-29T14:00:07;1.90;;;0.30;;
69434;SDS011;56625;54.322;18.582;2022-07-29T14:02:36;3.80;;;0.50;;
69434;SDS011;56625;54.322;18.582;2022-07-29T14:05:06;2.70;;;0.40;;
69434;SDS011;56625;54.322;18.582;2022-07-29T14:07:37;2.10;;;0.30;;
69434;SDS011;56625;54.322;18.582;2022-07-29T14:10:08;4.50;;;0.30;;
69434;SDS011;56625;54.322;18.582;2022-07-29T14:12:37;2.80;;;0.40;;
69434;SDS011;56625;54.322;18.582;2022-07-29T14:15:05;4.20;;;0.30;;
69434;SDS011;56625;54.322;18.582;2022-07-29T14:17:34;2.30;;;0.30;;
69434;SDS011;56625;54.322;18.582;2022-07-29T14:20:03;3.30;;;0.40;;
69434;SDS011;56625;54.322;18.582;2022-07-29T14:22:31;3.10;;;0.40;;
69434;SDS011;56625;54.322;18.582;2022-07-29T14:25:08;3.00;;;0.40;;
69434;SDS011;56625;54.322;18.582;2022-07-29T14:27:42;6.20;;;0.50;;
69434;SDS011;56625;54.322;18.582;2022-07-29T14:30:11;1.90;;;0.30;;
69434;SDS011;56625;54.322;18.582;2022-07-29T14:32:40;2.50;;;0.60;;
69434;SDS011;56625;54.322;18.582;2022-07-29T14:35:09;3.50;;;0.40;;
69434;SDS011;56625;54.322;18.582;2022-07-29T14:37:41;4.00;;;0.30;;
69434;SDS011;56625;54.322;18.582;2022-07-29T14:40:10;3.10;;;0.20;;
69434;SDS011;56625;54.322;18.582;2022-07-29T14:42:39;2.20;;;0.30;;
69434;SDS011;56625;54.322;18.582;2022-07-29T14:45:08;4.30;;;0.50;;
69434;SDS011;56625;54.322;18.582;2022-07-29T14:47:38;2.70;;;0.40;;
69434;SDS011;56625;54.322;18.582;2022-07-29T14:50:08;3.10;;;0.40;;
69434;SDS011;56625;54.322;18.582;2022-07-29T14:52:37;2.80;;;0.30;;
69434;SDS011;56625;54.322;18.582;2022-07-29T14:55:06;3.10;;;0.30;;
69434;SDS011;56625;54.322;18.582;2022-07-29T14:57:47;3.20;;;0.30;;
69434;SDS011;56625;54.322;18.582;2022-07-29T15:00:16;3.90;;;0.30;;
69434;SDS011;56625;54.322;18.582;2022-07-29T15:02:44;5.10;;;0.30;;
69434;SDS011;56625;54.322;18.582;2022-07-29T15:05:29;2.10;;;0.20;;
69434;SDS011;56625;54.322;18.582;2022-07-29T15:07:59;4.00;;;0.30;;
69434;SDS011;56625;54.322;18.582;2022-07-29T15:10:29;3.30;;;0.40;;
69434;SDS011;56625;54.322;18.582;2022-07-29T15:12:57;3.50;;;0.40;;
69434;SDS011;56625;54.322;18.582;2022-07-29T15:15:25;3.00;;;0.30;;
69434;SDS011;56625;54.322;18.582;2022-07-29T15:17:56;1.90;;;0.30;;
69434;SDS011;56625;54.322;18.582;2022-07-29T15:20:24;2.50;;;0.20;;
69434;SDS011;56625;54.322;18.582;2022-07-29T15:22:56;2.30;;;0.40;;
69434;SDS011;56625;54.322;18.582;2022-07-29T15:25:24;1.30;;;0.40;;
69434;SDS011;56625;54.322;18.582;2022-07-29T15:27:54;3.50;;;0.40;;
69434;SDS011;56625;54.322;18.582;2022-07-29T15:30:30;2.50;;;0.30;;
69434;SDS011;56625;54.322;18.582;2022-07-29T15:33:02;2.00;;;0.20;;
69434;SDS011;56625;54.322;18.582;2022-07-29T15:35:31;3.60;;;0.30;;